aviador You're here:

KM25 Decoded Metar

in
Report Time2017-08-16 19:55:00
UTC Time2017-08-16 19:33:53
Flight Rules vfr VFR
Wind200° at 09 Gusting to 14 kt
W.Rank200° ranks 2
Current wind is above 200° avg. (7.5)
Visibility9999 m
Phenomena:N/A
Clouds:Scattered 030 Hf
Scattered 040 Hf
Scattered 075 Hf
Expected CloudBase > 2,800 ft AGL from Temp-Dew spread
CeilingNone
Temp31°C
Dew Point24°C (66% RH)
Heat Index36.4°C
QNH1015 hPa
Raw Report
KM25 161955Z AUTO 20009G14KT 10SM SCT030 SCT040 SCT075 31/24 A2997
RMK AO2 PWINO=

Extra information for KM25:More info

Social comments